Estación de Petorca

Ultimos registro cada 15 minutos 73
Estación Fecha / Hora Temperatura Humedad Lluvia Velocidad Dirección Radiación Presion
73 Petorca 06-09-2026 19:00 15,4 64,3 0 1,5 219 49,4 981,7
72 Petorca 06-09-2026 18:45 16,1 58,8 0 2 223 76,9 981,6
71 Petorca 06-09-2026 18:30 17,5 55,7 0 2 215 205,6 981,4
70 Petorca 06-09-2026 18:15 17 57,2 0 2,5 227 201,9 981,4
69 Petorca 06-09-2026 18:00 17,8 54,2 0 3 226 176,9 981,4
68 Petorca 06-09-2026 17:45 19,3 52,6 0 3 219 469,4 981,1
67 Petorca 06-09-2026 17:30 19,5 51,8 0 2,5 215 520,6 980,9
66 Petorca 06-09-2026 17:15 19,4 54,5 0 2,5 222 533,1 980,6
65 Petorca 06-09-2026 17:00 18,7 55,5 0 2,5 232 379,4 980,7
64 Petorca 06-09-2026 16:45 19,9 53,9 0 2,5 229 430,6 980,4
63 Petorca 06-09-2026 16:30 19,8 54,2 0 2,5 222 674,4 980,3
62 Petorca 06-09-2026 16:15 19,6 54,6 0 2,5 229 474,4 980,6
61 Petorca 06-09-2026 16:00 19,9 52,5 0 2 232 654,4 980,5
60 Petorca 06-09-2026 15:45 19,7 53,5 0 2 239 674,4 980,6
59 Petorca 06-09-2026 15:30 20,4 54,2 0 1,5 240 740,6 980,5
58 Petorca 06-09-2026 15:15 20 53,5 0 1,5 248 764,4 980,6
57 Petorca 06-09-2026 15:00 20,3 55,5 0 2 239 785,6 980,7
56 Petorca 06-09-2026 14:45 19,6 59,2 0 3,5 227 804,4 980,6
55 Petorca 06-09-2026 14:30 19,3 61,1 0 3,5 225 821,9 980,7
54 Petorca 06-09-2026 14:15 19,4 61,8 0 3,5 234 834,4 980,8
53 Petorca 06-09-2026 14:00 19 62,1 0 3 233 839,4 980,8
52 Petorca 06-09-2026 13:45 18,6 63,3 0 3 234 846,9 980,9
51 Petorca 06-09-2026 13:30 18,1 64,7 0 3 229 844,4 980,9
50 Petorca 06-09-2026 13:15 17,7 65,6 0 2,5 232 835,6 981,1
49 Petorca 06-09-2026 13:00 17,5 67,9 0 2,5 226 828,1 981,1
48 Petorca 06-09-2026 12:45 17,3 65 0 2 223 814,4 981,1
47 Petorca 06-09-2026 12:30 16,7 65,3 0 2,5 229 795,6 981
46 Petorca 06-09-2026 12:15 16,4 67,8 0 2 225 773,1 981,3
45 Petorca 06-09-2026 12:00 16 68 0 2 220 744,4 981,2
44 Petorca 06-09-2026 11:45 15,8 65,3 0 1,5 220 716,9 981,3
43 Petorca 06-09-2026 11:30 15,3 67,3 0 1,5 209 684,4 981,3
42 Petorca 06-09-2026 11:15 14,9 68,1 0 1,5 219 645,6 981,4
41 Petorca 06-09-2026 11:00 15,3 64,4 0 0,5 219 608,1 981,3
40 Petorca 06-09-2026 10:45 15,4 60,1 0 0,5 220 564,4 981,2
39 Petorca 06-09-2026 10:30 15,3 62,9 0 0 211 518,1 981,3
38 Petorca 06-09-2026 10:15 14,4 64 0 0 191 469,4 981,3
37 Petorca 06-09-2026 10:00 13,7 62,3 0 0 108 418,1 981,1
36 Petorca 06-09-2026 09:45 12,9 67,2 0 0 39 365,6 981,1
35 Petorca 06-09-2026 09:30 12 72,6 0 0 3 309,4 981,1
34 Petorca 06-09-2026 09:15 9,5 80,5 0 0 7 258,1 981
33 Petorca 06-09-2026 09:00 4,9 91,8 0 0 27 133,1 981,2
32 Petorca 06-09-2026 08:45 4,1 94 0 0 29 16,9 980,9
31 Petorca 06-09-2026 08:30 4,1 94,1 0 0 7 14,4 981
30 Petorca 06-09-2026 08:15 3,8 95 0 0 20 9,4 981
29 Petorca 06-09-2026 08:00 3,6 94,8 0 0 21 4,4 981,1
28 Petorca 06-09-2026 07:45 3,9 95,1 0 0,5 11 0,6 981,1
27 Petorca 06-09-2026 07:30 3,8 95,7 0 0,5 44 0,6 981
26 Petorca 06-09-2026 07:15 3,7 95,1 0 0 42 0,6 981,1
25 Petorca 06-09-2026 07:00 3,9 95,1 0 0 4 0,6 980,7
24 Petorca 06-09-2026 06:45 4,1 94,7 0 0 28 0,6 980,9
23 Petorca 06-09-2026 06:30 4,4 94,6 0 0,5 21 0,6 980,9
22 Petorca 06-09-2026 06:15 4,4 94,9 0 0 42 0,6 981
21 Petorca 06-09-2026 06:00 4,2 94,2 0 0 7 0,6 980,9
20 Petorca 06-09-2026 05:45 4,8 93,8 0 0 13 0,6 980,9
19 Petorca 06-09-2026 05:30 5,3 94,9 0 0,5 24 0,6 981
18 Petorca 06-09-2026 05:15 4,5 95 0 0 35 0,6 981,1
17 Petorca 06-09-2026 05:00 4,6 95 0 0,5 31 0,6 981
16 Petorca 06-09-2026 04:45 4,6 95,3 0 0 18 0,6 981,3
15 Petorca 06-09-2026 04:30 4,9 94,9 0 0 344 0,6 981,2
14 Petorca 06-09-2026 04:15 5 92,7 0 0 343 0,6 981,4
13 Petorca 06-09-2026 04:00 6 94,4 0 0 3 0,6 981,5
12 Petorca 06-09-2026 03:45 5,3 94 0 0 28 0,6 981,6
11 Petorca 06-09-2026 03:30 5,4 93,8 0 0 20 0,6 981,8
10 Petorca 06-09-2026 03:15 5,9 93,3 0 0 18 0,6 981,9
9 Petorca 06-09-2026 03:00 6,1 94 0 0,5 41 0,6 982,1
8 Petorca 06-09-2026 02:45 5,7 93,4 0 0 21 0,6 982,3
7 Petorca 06-09-2026 02:30 6,4 92,5 0 0 13 0,6 982,4
6 Petorca 06-09-2026 02:15 6,9 91,5 0 0 35 0,6 982,5
5 Petorca 06-09-2026 02:00 8,3 85,1 0 1 13 0,6 982,6
4 Petorca 06-09-2026 01:45 7,8 90,4 0 0,5 22 0,6 982,8
3 Petorca 06-09-2026 01:30 7,2 91,5 0 0,5 32 0,6 982,9
2 Petorca 06-09-2026 01:15 6,8 94 0 0 28 0,6 982,9
1 Petorca 06-09-2026 01:00 6,4 93,7 0 0 13 0,6 983,1